sensor_id;sensor_type;location;lat;lon;timestamp;pressure;altitude;pressure_sealevel;temperature;humidity
70103;BME280;57470;50.034;15.256;2023-01-28T00:02:07;99972.09;;;1.59;92.68
70103;BME280;57470;50.034;15.256;2023-01-28T00:04:32;99979.47;;;1.78;92.33
70103;BME280;57470;50.034;15.256;2023-01-28T00:06:58;99962.81;;;1.79;91.54
70103;BME280;57470;50.034;15.256;2023-01-28T00:09:24;99966.81;;;1.60;91.99
70103;BME280;57470;50.034;15.256;2023-01-28T00:11:49;99964.84;;;1.70;92.34
70103;BME280;57470;50.034;15.256;2023-01-28T00:14:15;99966.63;;;1.68;93.03
70103;BME280;57470;50.034;15.256;2023-01-28T00:16:41;99962.25;;;1.68;92.91
70103;BME280;57470;50.034;15.256;2023-01-28T00:19:06;99965.09;;;1.59;93.44
70103;BME280;57470;50.034;15.256;2023-01-28T00:21:33;99959.59;;;1.70;93.24
70103;BME280;57470;50.034;15.256;2023-01-28T00:23:58;99966.19;;;1.50;93.64
70103;BME280;57470;50.034;15.256;2023-01-28T00:26:24;99961.19;;;1.75;93.24
70103;BME280;57470;50.034;15.256;2023-01-28T00:28:49;99972.72;;;1.70;93.44
70103;BME280;57470;50.034;15.256;2023-01-28T00:31:24;99976.91;;;1.77;93.50
70103;BME280;57470;50.034;15.256;2023-01-28T00:33:50;99979.25;;;1.87;93.15
70103;BME280;57470;50.034;15.256;2023-01-28T00:36:17;99976.97;;;1.74;93.20
70103;BME280;57470;50.034;15.256;2023-01-28T00:38:47;99980.44;;;1.74;92.91
70103;BME280;57470;50.034;15.256;2023-01-28T00:41:15;99970.97;;;1.69;93.33
70103;BME280;57470;50.034;15.256;2023-01-28T00:43:41;99970.19;;;1.65;93.32
70103;BME280;57470;50.034;15.256;2023-01-28T00:46:08;99967.94;;;1.50;93.98
70103;BME280;57470;50.034;15.256;2023-01-28T00:48:34;99965.84;;;1.64;93.72
70103;BME280;57470;50.034;15.256;2023-01-28T00:51:01;99981.41;;;1.70;93.58
70103;BME280;57470;50.034;15.256;2023-01-28T00:53:27;99975.09;;;1.79;93.74
70103;BME280;57470;50.034;15.256;2023-01-28T00:55:53;99979.63;;;1.72;93.52
70103;BME280;57470;50.034;15.256;2023-01-28T00:58:19;99981.94;;;1.84;93.38
70103;BME280;57470;50.034;15.256;2023-01-28T01:00:44;99975.19;;;1.74;93.29
70103;BME280;57470;50.034;15.256;2023-01-28T01:03:10;99977.00;;;1.72;93.39
70103;BME280;57470;50.034;15.256;2023-01-28T01:05:35;99986.03;;;1.61;93.80
70103;BME280;57470;50.034;15.256;2023-01-28T01:08:01;99984.09;;;1.69;93.77
70103;BME280;57470;50.034;15.256;2023-01-28T01:10:26;99982.38;;;1.68;94.05
70103;BME280;57470;50.034;15.256;2023-01-28T01:12:52;99984.09;;;1.69;94.28
70103;BME280;57470;50.034;15.256;2023-01-28T01:15:18;99980.69;;;1.64;94.61
70103;BME280;57470;50.034;15.256;2023-01-28T01:17:46;99983.09;;;1.73;94.35
70103;BME280;57470;50.034;15.256;2023-01-28T01:20:16;99978.03;;;1.65;94.12
70103;BME280;57470;50.034;15.256;2023-01-28T01:22:41;99980.88;;;1.56;94.31
70103;BME280;57470;50.034;15.256;2023-01-28T01:25:07;99985.09;;;1.62;94.01
70103;BME280;57470;50.034;15.256;2023-01-28T01:27:33;99990.13;;;1.71;94.29
70103;BME280;57470;50.034;15.256;2023-01-28T01:29:58;99984.63;;;1.81;93.68
70103;BME280;57470;50.034;15.256;2023-01-28T01:32:24;99983.66;;;1.85;93.46
70103;BME280;57470;50.034;15.256;2023-01-28T01:34:53;99997.53;;;1.89;93.38
70103;BME280;57470;50.034;15.256;2023-01-28T01:37:18;99997.72;;;1.83;93.56
70103;BME280;57470;50.034;15.256;2023-01-28T01:39:43;99996.97;;;1.78;94.03
70103;BME280;57470;50.034;15.256;2023-01-28T01:42:12;100003.13;;;1.77;94.15
70103;BME280;57470;50.034;15.256;2023-01-28T01:49:55;100004.72;;;1.82;93.95
70103;BME280;57470;50.034;15.256;2023-01-28T01:52:25;100006.50;;;1.80;94.43
70103;BME280;57470;50.034;15.256;2023-01-28T01:54:55;100002.44;;;1.69;94.40
70103;BME280;57470;50.034;15.256;2023-01-28T01:57:26;100003.31;;;1.69;94.39
70103;BME280;57470;50.034;15.256;2023-01-28T01:59:54;100010.94;;;1.78;94.83
70103;BME280;57470;50.034;15.256;2023-01-28T02:02:20;100018.13;;;1.70;94.94
70103;BME280;57470;50.034;15.256;2023-01-28T02:04:46;100010.72;;;1.52;95.28
70103;BME280;57470;50.034;15.256;2023-01-28T02:07:14;100007.53;;;1.38;95.46
70103;BME280;57470;50.034;15.256;2023-01-28T02:09:40;100008.19;;;1.47;95.71
70103;BME280;57470;50.034;15.256;2023-01-28T02:14:37;100013.66;;;1.74;94.99
70103;BME280;57470;50.034;15.256;2023-01-28T02:17:04;100008.41;;;1.75;94.91
70103;BME280;57470;50.034;15.256;2023-01-28T02:19:57;100010.44;;;1.63;94.80
70103;BME280;57470;50.034;15.256;2023-01-28T02:31:10;100014.50;;;1.76;94.78
70103;BME280;57470;50.034;15.256;2023-01-28T02:33:51;100013.72;;;1.71;94.94
70103;BME280;57470;50.034;15.256;2023-01-28T02:36:37;100017.41;;;1.64;95.00
70103;BME280;57470;50.034;15.256;2023-01-28T02:39:12;100011.06;;;1.72;94.78
70103;BME280;57470;50.034;15.256;2023-01-28T02:41:48;100008.63;;;1.66;94.89
70103;BME280;57470;50.034;15.256;2023-01-28T02:44:16;100011.28;;;1.63;95.08
70103;BME280;57470;50.034;15.256;2023-01-28T02:46:41;100020.09;;;1.24;96.41
70103;BME280;57470;50.034;15.256;2023-01-28T02:49:29;100017.28;;;1.31;96.62
70103;BME280;57470;50.034;15.256;2023-01-28T02:54:55;100015.56;;;1.30;96.61
70103;BME280;57470;50.034;15.256;2023-01-28T02:57:42;100021.84;;;1.23;97.10
70103;BME280;57470;50.034;15.256;2023-01-28T03:03:18;100020.31;;;1.13;97.42
70103;BME280;57470;50.034;15.256;2023-01-28T03:05:51;100021.38;;;1.04;97.22
70103;BME280;57470;50.034;15.256;2023-01-28T03:08:55;100020.38;;;1.10;97.71
70103;BME280;57470;50.034;15.256;2023-01-28T03:11:46;100024.38;;;1.26;97.14
70103;BME280;57470;50.034;15.256;2023-01-28T03:14:33;100022.50;;;1.33;97.16
70103;BME280;57470;50.034;15.256;2023-01-28T03:20:47;100018.03;;;1.36;96.56
70103;BME280;57470;50.034;15.256;2023-01-28T03:24:02;100022.34;;;1.40;96.75
70103;BME280;57470;50.034;15.256;2023-01-28T03:29:57;100025.38;;;1.61;96.47
70103;BME280;57470;50.034;15.256;2023-01-28T03:32:44;100020.88;;;1.64;95.95
70103;BME280;57470;50.034;15.256;2023-01-28T03:35:30;100019.16;;;1.63;95.66
70103;BME280;57470;50.034;15.256;2023-01-28T03:38:15;100026.13;;;1.64;95.81
70103;BME280;57470;50.034;15.256;2023-01-28T03:40:54;100024.22;;;1.71;95.45
70103;BME280;57470;50.034;15.256;2023-01-28T03:43:21;100021.69;;;1.68;95.04
70103;BME280;57470;50.034;15.256;2023-01-28T03:45:47;100023.25;;;1.75;95.14
70103;BME280;57470;50.034;15.256;2023-01-28T03:48:19;100022.63;;;1.65;95.04
70103;BME280;57470;50.034;15.256;2023-01-28T03:50:45;100027.81;;;1.67;95.72
70103;BME280;57470;50.034;15.256;2023-01-28T03:53:12;100034.00;;;1.64;95.29
70103;BME280;57470;50.034;15.256;2023-01-28T03:55:40;100030.44;;;1.67;95.49
70103;BME280;57470;50.034;15.256;2023-01-28T03:58:05;100028.88;;;1.60;96.07
70103;BME280;57470;50.034;15.256;2023-01-28T04:00:31;100038.50;;;1.59;95.68
70103;BME280;57470;50.034;15.256;2023-01-28T04:03:03;100040.09;;;1.65;95.69
70103;BME280;57470;50.034;15.256;2023-01-28T04:05:29;100040.38;;;1.52;96.06
70103;BME280;57470;50.034;15.256;2023-01-28T04:07:54;100040.25;;;1.59;96.27
70103;BME280;57470;50.034;15.256;2023-01-28T04:10:21;100039.28;;;1.63;96.33
70103;BME280;57470;50.034;15.256;2023-01-28T04:12:46;100040.94;;;1.67;95.89
70103;BME280;57470;50.034;15.256;2023-01-28T04:15:15;100034.00;;;1.64;95.78
70103;BME280;57470;50.034;15.256;2023-01-28T04:17:47;100039.06;;;1.72;95.74
70103;BME280;57470;50.034;15.256;2023-01-28T04:20:13;100037.38;;;1.69;95.92
70103;BME280;57470;50.034;15.256;2023-01-28T04:22:39;100037.72;;;1.54;95.99
70103;BME280;57470;50.034;15.256;2023-01-28T04:25:04;100047.06;;;1.66;96.17
70103;BME280;57470;50.034;15.256;2023-01-28T04:27:30;100034.72;;;1.71;95.78
70103;BME280;57470;50.034;15.256;2023-01-28T04:29:55;100043.59;;;1.65;95.72
70103;BME280;57470;50.034;15.256;2023-01-28T04:32:20;100045.16;;;1.72;95.84
70103;BME280;57470;50.034;15.256;2023-01-28T04:34:46;100037.22;;;1.77;95.55
70103;BME280;57470;50.034;15.256;2023-01-28T04:37:11;100037.47;;;1.65;95.87
70103;BME280;57470;50.034;15.256;2023-01-28T04:39:37;100045.09;;;1.75;95.61
70103;BME280;57470;50.034;15.256;2023-01-28T04:42:02;100042.41;;;1.78;95.32
70103;BME280;57470;50.034;15.256;2023-01-28T04:44:27;100036.44;;;1.72;95.70
70103;BME280;57470;50.034;15.256;2023-01-28T04:46:53;100049.28;;;1.82;95.38
70103;BME280;57470;50.034;15.256;2023-01-28T04:49:18;100050.19;;;1.81;94.88
70103;BME280;57470;50.034;15.256;2023-01-28T04:51:43;100055.44;;;1.81;94.66
70103;BME280;57470;50.034;15.256;2023-01-28T04:54:09;100046.41;;;1.58;95.55
70103;BME280;57470;50.034;15.256;2023-01-28T04:56:34;100043.66;;;1.62;95.76
70103;BME280;57470;50.034;15.256;2023-01-28T04:59:00;100052.34;;;1.64;95.49
70103;BME280;57470;50.034;15.256;2023-01-28T05:01:26;100048.16;;;1.57;95.76
70103;BME280;57470;50.034;15.256;2023-01-28T05:03:52;100060.56;;;1.49;96.10
70103;BME280;57470;50.034;15.256;2023-01-28T05:06:17;100055.03;;;1.61;96.08
70103;BME280;57470;50.034;15.256;2023-01-28T05:08:43;100057.03;;;1.52;96.33
70103;BME280;57470;50.034;15.256;2023-01-28T05:11:10;100060.38;;;1.58;96.15
70103;BME280;57470;50.034;15.256;2023-01-28T05:13:36;100062.13;;;1.58;96.04
70103;BME280;57470;50.034;15.256;2023-01-28T05:16:01;100051.56;;;1.61;96.16
70103;BME280;57470;50.034;15.256;2023-01-28T05:18:27;100050.94;;;1.49;96.39
70103;BME280;57470;50.034;15.256;2023-01-28T05:20:52;100063.97;;;1.52;96.52
70103;BME280;57470;50.034;15.256;2023-01-28T05:23:17;100062.22;;;1.53;96.57
70103;BME280;57470;50.034;15.256;2023-01-28T05:25:43;100061.28;;;1.56;96.65
70103;BME280;57470;50.034;15.256;2023-01-28T05:28:10;100063.19;;;1.49;96.87
70103;BME280;57470;50.034;15.256;2023-01-28T05:30:36;100064.91;;;1.50;96.96
70103;BME280;57470;50.034;15.256;2023-01-28T05:33:02;100067.84;;;1.35;97.11
70103;BME280;57470;50.034;15.256;2023-01-28T05:35:27;100072.97;;;1.42;97.26
70103;BME280;57470;50.034;15.256;2023-01-28T05:37:54;100073.94;;;1.37;97.38
70103;BME280;57470;50.034;15.256;2023-01-28T05:40:19;100066.59;;;1.52;97.30
70103;BME280;57470;50.034;15.256;2023-01-28T05:42:44;100062.97;;;1.60;97.25
70103;BME280;57470;50.034;15.256;2023-01-28T05:45:10;100064.72;;;1.59;96.72
70103;BME280;57470;50.034;15.256;2023-01-28T05:47:36;100074.41;;;1.56;96.55
70103;BME280;57470;50.034;15.256;2023-01-28T05:50:02;100072.56;;;1.61;96.56
70103;BME280;57470;50.034;15.256;2023-01-28T05:52:27;100076.81;;;1.65;96.06
70103;BME280;57470;50.034;15.256;2023-01-28T05:54:52;100074.53;;;1.49;96.58
70103;BME280;57470;50.034;15.256;2023-01-28T05:57:18;100073.50;;;1.57;96.50
70103;BME280;57470;50.034;15.256;2023-01-28T05:59:43;100075.28;;;1.55;96.58
70103;BME280;57470;50.034;15.256;2023-01-28T06:02:09;100074.06;;;1.31;97.03
70103;BME280;57470;50.034;15.256;2023-01-28T06:04:34;100073.22;;;1.30;97.64
70103;BME280;57470;50.034;15.256;2023-01-28T06:06:59;100081.28;;;1.20;98.06
70103;BME280;57470;50.034;15.256;2023-01-28T06:09:25;100081.13;;;1.27;97.54
70103;BME280;57470;50.034;15.256;2023-01-28T06:11:50;100081.94;;;1.31;97.73
70103;BME280;57470;50.034;15.256;2023-01-28T06:14:16;100083.63;;;1.33;97.61
70103;BME280;57470;50.034;15.256;2023-01-28T06:16:41;100087.06;;;1.35;97.42
70103;BME280;57470;50.034;15.256;2023-01-28T06:19:07;100082.31;;;1.52;97.27
70103;BME280;57470;50.034;15.256;2023-01-28T06:21:34;100096.50;;;1.44;96.83
70103;BME280;57470;50.034;15.256;2023-01-28T06:23:59;100095.69;;;1.42;96.44
70103;BME280;57470;50.034;15.256;2023-01-28T06:26:24;100094.63;;;1.50;96.76
70103;BME280;57470;50.034;15.256;2023-01-28T06:28:50;100100.75;;;1.49;96.54
70103;BME280;57470;50.034;15.256;2023-01-28T06:31:15;100100.94;;;1.40;96.82
70103;BME280;57470;50.034;15.256;2023-01-28T06:33:40;100102.72;;;1.38;97.04
70103;BME280;57470;50.034;15.256;2023-01-28T06:36:06;100111.94;;;1.58;96.87
70103;BME280;57470;50.034;15.256;2023-01-28T06:38:32;100104.22;;;1.52;96.60
70103;BME280;57470;50.034;15.256;2023-01-28T06:40:57;100109.28;;;1.59;96.63
70103;BME280;57470;50.034;15.256;2023-01-28T06:43:23;100106.06;;;1.46;96.39
70103;BME280;57470;50.034;15.256;2023-01-28T06:45:53;100113.75;;;1.54;96.57
70103;BME280;57470;50.034;15.256;2023-01-28T06:48:19;100108.88;;;1.37;97.27
70103;BME280;57470;50.034;15.256;2023-01-28T06:50:46;100116.34;;;1.56;97.28
70103;BME280;57470;50.034;15.256;2023-01-28T06:53:12;100116.19;;;1.62;96.59
70103;BME280;57470;50.034;15.256;2023-01-28T06:55:37;100118.91;;;1.59;96.62
70103;BME280;57470;50.034;15.256;2023-01-28T06:58:03;100125.09;;;1.55;96.71
70103;BME280;57470;50.034;15.256;2023-01-28T07:00:28;100126.78;;;1.59;96.92
70103;BME280;57470;50.034;15.256;2023-01-28T07:02:56;100134.41;;;1.69;96.87
70103;BME280;57470;50.034;15.256;2023-01-28T07:05:22;100138.88;;;1.64;96.48
70103;BME280;57470;50.034;15.256;2023-01-28T07:07:48;100136.03;;;1.73;96.39
70103;BME280;57470;50.034;15.256;2023-01-28T07:10:14;100133.78;;;1.58;96.31
70103;BME280;57470;50.034;15.256;2023-01-28T07:12:39;100140.91;;;1.52;96.90
70103;BME280;57470;50.034;15.256;2023-01-28T07:15:05;100144.13;;;1.63;96.62
70103;BME280;57470;50.034;15.256;2023-01-28T07:17:31;100141.72;;;1.54;96.52
70103;BME280;57470;50.034;15.256;2023-01-28T07:19:56;100142.50;;;1.59;96.64
70103;BME280;57470;50.034;15.256;2023-01-28T07:22:21;100149.56;;;1.55;97.05
70103;BME280;57470;50.034;15.256;2023-01-28T07:24:47;100147.22;;;1.43;97.57
70103;BME280;57470;50.034;15.256;2023-01-28T07:27:12;100151.66;;;1.38;97.53
70103;BME280;57470;50.034;15.256;2023-01-28T07:29:37;100158.78;;;1.33;97.74
70103;BME280;57470;50.034;15.256;2023-01-28T07:32:03;100161.25;;;1.39;98.38
70103;BME280;57470;50.034;15.256;2023-01-28T07:34:31;100164.56;;;1.48;97.98
70103;BME280;57470;50.034;15.256;2023-01-28T07:36:57;100159.16;;;1.55;97.67
70103;BME280;57470;50.034;15.256;2023-01-28T07:39:22;100166.81;;;1.65;96.98
70103;BME280;57470;50.034;15.256;2023-01-28T07:41:47;100166.06;;;1.60;97.31
70103;BME280;57470;50.034;15.256;2023-01-28T07:44:13;100176.38;;;1.68;96.64
70103;BME280;57470;50.034;15.256;2023-01-28T07:46:38;100167.19;;;1.48;97.29
70103;BME280;57470;50.034;15.256;2023-01-28T07:49:04;100172.38;;;1.52;97.35
70103;BME280;57470;50.034;15.256;2023-01-28T07:51:29;100175.69;;;1.60;97.37
70103;BME280;57470;50.034;15.256;2023-01-28T07:53:54;100176.44;;;1.65;97.20
70103;BME280;57470;50.034;15.256;2023-01-28T07:56:20;100173.75;;;1.68;97.15
70103;BME280;57470;50.034;15.256;2023-01-28T07:58:48;100180.66;;;1.72;97.23
70103;BME280;57470;50.034;15.256;2023-01-28T08:01:14;100177.09;;;1.74;97.00
70103;BME280;57470;50.034;15.256;2023-01-28T08:03:39;100177.81;;;1.82;97.01
70103;BME280;57470;50.034;15.256;2023-01-28T08:06:04;100177.66;;;1.88;97.03
70103;BME280;57470;50.034;15.256;2023-01-28T08:08:30;100178.06;;;1.70;97.35
70103;BME280;57470;50.034;15.256;2023-01-28T08:10:56;100177.63;;;1.90;96.79
70103;BME280;57470;50.034;15.256;2023-01-28T08:13:21;100187.44;;;1.82;96.66
70103;BME280;57470;50.034;15.256;2023-01-28T08:15:47;100183.09;;;1.79;96.56
70103;BME280;57470;50.034;15.256;2023-01-28T08:18:14;100186.91;;;1.66;96.83
70103;BME280;57470;50.034;15.256;2023-01-28T08:20:42;100189.00;;;1.89;96.64
70103;BME280;57470;50.034;15.256;2023-01-28T08:23:14;100190.69;;;1.93;96.42
70103;BME280;57470;50.034;15.256;2023-01-28T08:25:40;100192.28;;;2.00;95.54
70103;BME280;57470;50.034;15.256;2023-01-28T08:28:06;100183.00;;;1.85;94.83
70103;BME280;57470;50.034;15.256;2023-01-28T08:30:32;100194.03;;;2.00;94.97
70103;BME280;57470;50.034;15.256;2023-01-28T08:32:59;100188.16;;;1.88;95.20
70103;BME280;57470;50.034;15.256;2023-01-28T08:35:26;100195.88;;;1.96;95.53
70103;BME280;57470;50.034;15.256;2023-01-28T08:37:53;100189.72;;;1.97;95.16
70103;BME280;57470;50.034;15.256;2023-01-28T08:40:19;100196.81;;;1.94;94.69
70103;BME280;57470;50.034;15.256;2023-01-28T08:42:52;100192.34;;;1.97;95.18
70103;BME280;57470;50.034;15.256;2023-01-28T08:45:19;100194.47;;;2.18;95.15
70103;BME280;57470;50.034;15.256;2023-01-28T08:47:51;100193.94;;;2.04;94.68
70103;BME280;57470;50.034;15.256;2023-01-28T08:50:17;100208.47;;;2.19;94.70
70103;BME280;57470;50.034;15.256;2023-01-28T08:52:44;100200.94;;;2.05;94.63
70103;BME280;57470;50.034;15.256;2023-01-28T08:55:10;100213.47;;;1.91;94.54
70103;BME280;57470;50.034;15.256;2023-01-28T08:57:36;100211.63;;;1.96;94.75
70103;BME280;57470;50.034;15.256;2023-01-28T09:00:02;100207.97;;;2.03;94.22
70103;BME280;57470;50.034;15.256;2023-01-28T09:25:59;100235.91;;;0.67;100.00
70103;BME280;57470;50.034;15.256;2023-01-28T09:28:24;100242.75;;;0.76;100.00
70103;BME280;57470;50.034;15.256;2023-01-28T09:30:50;100242.56;;;0.88;100.00
70103;BME280;57470;50.034;15.256;2023-01-28T09:33:15;100237.91;;;1.04;100.00
70103;BME280;57470;50.034;15.256;2023-01-28T09:35:40;100240.94;;;1.29;100.00
70103;BME280;57470;50.034;15.256;2023-01-28T09:38:06;100243.34;;;1.41;100.00
70103;BME280;57470;50.034;15.256;2023-01-28T09:40:36;100239.53;;;1.57;99.45
70103;BME280;57470;50.034;15.256;2023-01-28T09:46:10;100245.91;;;1.87;96.90
70103;BME280;57470;50.034;15.256;2023-01-28T09:48:40;100240.84;;;1.78;95.80
70103;BME280;57470;50.034;15.256;2023-01-28T09:51:10;100240.66;;;1.87;96.00
70103;BME280;57470;50.034;15.256;2023-01-28T09:53:47;100232.59;;;1.96;95.32
70103;BME280;57470;50.034;15.256;2023-01-28T09:56:29;100239.88;;;1.82;94.78
70103;BME280;57470;50.034;15.256;2023-01-28T09:59:25;100235.72;;;2.13;94.86
70103;BME280;57470;50.034;15.256;2023-01-28T10:05:25;100234.63;;;1.83;93.12
70103;BME280;57470;50.034;15.256;2023-01-28T10:11:40;100240.44;;;2.36;93.70
70103;BME280;57470;50.034;15.256;2023-01-28T10:13:58;100242.28;;;2.33;93.14
70103;BME280;57470;50.034;15.256;2023-01-28T10:16:41;100235.63;;;2.55;92.24
70103;BME280;57470;50.034;15.256;2023-01-28T10:19:20;100229.44;;;2.57;92.32
70103;BME280;57470;50.034;15.256;2023-01-28T10:21:52;100233.59;;;2.31;91.30
70103;BME280;57470;50.034;15.256;2023-01-28T10:24:40;100235.44;;;2.62;91.98
70103;BME280;57470;50.034;15.256;2023-01-28T10:27:28;100234.63;;;2.23;92.12
70103;BME280;57470;50.034;15.256;2023-01-28T10:29:55;100232.97;;;2.56;91.87
70103;BME280;57470;50.034;15.256;2023-01-28T10:32:45;100236.19;;;2.32;91.21
70103;BME280;57470;50.034;15.256;2023-01-28T10:35:13;100236.78;;;2.42;91.34
70103;BME280;57470;50.034;15.256;2023-01-28T10:37:39;100243.00;;;2.76;91.60
70103;BME280;57470;50.034;15.256;2023-01-28T10:40:11;100235.41;;;2.64;90.66
70103;BME280;57470;50.034;15.256;2023-01-28T10:42:37;100239.56;;;2.73;90.90
70103;BME280;57470;50.034;15.256;2023-01-28T10:45:15;100243.34;;;2.61;90.00
70103;BME280;57470;50.034;15.256;2023-01-28T10:48:06;100250.22;;;2.68;89.61
70103;BME280;57470;50.034;15.256;2023-01-28T10:50:33;100248.06;;;2.47;90.51
70103;BME280;57470;50.034;15.256;2023-01-28T10:53:04;100253.59;;;2.35;90.38
70103;BME280;57470;50.034;15.256;2023-01-28T10:55:53;100239.75;;;2.28;90.28
70103;BME280;57470;50.034;15.256;2023-01-28T10:58:24;100238.19;;;2.19;90.73
70103;BME280;57470;50.034;15.256;2023-01-28T11:00:55;100242.72;;;2.13;90.36
70103;BME280;57470;50.034;15.256;2023-01-28T11:03:22;100248.28;;;2.38;90.64
70103;BME280;57470;50.034;15.256;2023-01-28T11:05:52;100248.31;;;2.36;90.31
70103;BME280;57470;50.034;15.256;2023-01-28T11:08:19;100255.34;;;2.34;89.96
70103;BME280;57470;50.034;15.256;2023-01-28T11:10:46;100253.78;;;1.87;89.96
70103;BME280;57470;50.034;15.256;2023-01-28T11:13:25;100261.69;;;1.85;89.79
70103;BME280;57470;50.034;15.256;2023-01-28T11:16:15;100262.03;;;1.69;89.73
70103;BME280;57470;50.034;15.256;2023-01-28T11:19:04;100257.56;;;1.72;90.43
70103;BME280;57470;50.034;15.256;2023-01-28T11:21:31;100261.84;;;1.78;90.22
70103;BME280;57470;50.034;15.256;2023-01-28T11:24:06;100268.13;;;1.69;90.28
70103;BME280;57470;50.034;15.256;2023-01-28T11:26:43;100266.41;;;1.68;90.93
70103;BME280;57470;50.034;15.256;2023-01-28T11:29:29;100262.09;;;1.64;90.70
70103;BME280;57470;50.034;15.256;2023-01-28T11:31:56;100260.22;;;1.71;90.76
70103;BME280;57470;50.034;15.256;2023-01-28T11:34:28;100263.66;;;1.74;91.23
70103;BME280;57470;50.034;15.256;2023-01-28T11:37:08;100265.09;;;1.89;90.78
70103;BME280;57470;50.034;15.256;2023-01-28T11:39:36;100262.94;;;1.66;90.10
70103;BME280;57470;50.034;15.256;2023-01-28T11:42:14;100264.56;;;1.72;90.13
70103;BME280;57470;50.034;15.256;2023-01-28T11:44:41;100265.03;;;1.49;90.05
70103;BME280;57470;50.034;15.256;2023-01-28T11:57:31;100258.25;;;1.82;91.01
70103;BME280;57470;50.034;15.256;2023-01-28T12:10:09;100262.34;;;1.52;90.47
70103;BME280;57470;50.034;15.256;2023-01-28T12:15:41;100264.50;;;1.75;89.95
70103;BME280;57470;50.034;15.256;2023-01-28T12:18:38;100256.78;;;1.69;89.84
70103;BME280;57470;50.034;15.256;2023-01-28T12:26:22;100265.75;;;1.56;89.81
70103;BME280;57470;50.034;15.256;2023-01-28T12:35:06;100271.69;;;1.19;91.21
70103;BME280;57470;50.034;15.256;2023-01-28T12:43:59;100261.13;;;1.24;92.18
70103;BME280;57470;50.034;15.256;2023-01-28T12:51:56;100269.72;;;1.32;92.96
70103;BME280;57470;50.034;15.256;2023-01-28T12:54:30;100266.31;;;1.27;92.69
70103;BME280;57470;50.034;15.256;2023-01-28T12:56:58;100264.72;;;1.17;92.43
70103;BME280;57470;50.034;15.256;2023-01-28T13:04:41;100279.25;;;0.87;92.93
70103;BME280;57470;50.034;15.256;2023-01-28T13:07:11;100270.56;;;0.83;92.90
70103;BME280;57470;50.034;15.256;2023-01-28T13:09:43;100273.13;;;0.88;93.52
70103;BME280;57470;50.034;15.256;2023-01-28T13:12:12;100274.88;;;0.86;93.64
70103;BME280;57470;50.034;15.256;2023-01-28T13:14:38;100274.06;;;0.82;93.57
70103;BME280;57470;50.034;15.256;2023-01-28T13:17:21;100278.47;;;0.80;93.78
70103;BME280;57470;50.034;15.256;2023-01-28T13:19:48;100276.78;;;0.78;93.65
70103;BME280;57470;50.034;15.256;2023-01-28T13:22:34;100285.47;;;0.80;93.39
70103;BME280;57470;50.034;15.256;2023-01-28T13:25:18;100284.50;;;0.84;93.11
70103;BME280;57470;50.034;15.256;2023-01-28T13:27:56;100289.31;;;1.09;93.11
70103;BME280;57470;50.034;15.256;2023-01-28T13:30:34;100295.50;;;1.07;93.33
70103;BME280;57470;50.034;15.256;2023-01-28T13:33:02;100294.09;;;0.85;93.11
70103;BME280;57470;50.034;15.256;2023-01-28T13:35:35;100303.59;;;0.90;93.69
70103;BME280;57470;50.034;15.256;2023-01-28T13:38:16;100303.75;;;0.81;93.35
70103;BME280;57470;50.034;15.256;2023-01-28T13:40:43;100299.44;;;0.80;93.22
70103;BME280;57470;50.034;15.256;2023-01-28T13:46:01;100299.34;;;0.85;93.98
70103;BME280;57470;50.034;15.256;2023-01-28T13:48:48;100298.63;;;0.73;93.62
70103;BME280;57470;50.034;15.256;2023-01-28T13:51:26;100309.72;;;0.91;92.99
70103;BME280;57470;50.034;15.256;2023-01-28T13:56:25;100303.34;;;1.07;92.30
70103;BME280;57470;50.034;15.256;2023-01-28T14:07:46;100316.59;;;0.38;92.86
70103;BME280;57470;50.034;15.256;2023-01-28T14:10:30;100312.09;;;0.49;93.42
70103;BME280;57470;50.034;15.256;2023-01-28T14:15:56;100323.19;;;0.66;92.34
70103;BME280;57470;50.034;15.256;2023-01-28T14:18:27;100325.47;;;0.89;91.96
70103;BME280;57470;50.034;15.256;2023-01-28T14:20:55;100325.06;;;0.57;91.36
70103;BME280;57470;50.034;15.256;2023-01-28T14:23:23;100322.22;;;0.72;91.27
70103;BME280;57470;50.034;15.256;2023-01-28T14:26:25;100330.16;;;0.67;91.39
70103;BME280;57470;50.034;15.256;2023-01-28T14:29:01;100327.78;;;0.52;91.13
70103;BME280;57470;50.034;15.256;2023-01-28T14:31:34;100326.56;;;0.74;91.22
70103;BME280;57470;50.034;15.256;2023-01-28T14:36:39;100329.31;;;0.65;90.81
70103;BME280;57470;50.034;15.256;2023-01-28T14:39:13;100332.31;;;0.36;90.53
70103;BME280;57470;50.034;15.256;2023-01-28T14:41:42;100335.78;;;0.40;89.72
70103;BME280;57470;50.034;15.256;2023-01-28T14:46:55;100333.91;;;0.48;89.79
70103;BME280;57470;50.034;15.256;2023-01-28T14:49:37;100341.31;;;0.17;89.37
70103;BME280;57470;50.034;15.256;2023-01-28T14:55:25;100349.00;;;0.28;90.08
70103;BME280;57470;50.034;15.256;2023-01-28T14:57:56;100342.34;;;0.03;90.18
70103;BME280;57470;50.034;15.256;2023-01-28T15:00:28;100342.31;;;0.07;90.29
70103;BME280;57470;50.034;15.256;2023-01-28T15:02:54;100345.59;;;0.23;90.52
70103;BME280;57470;50.034;15.256;2023-01-28T15:05:22;100359.47;;;0.28;90.18
70103;BME280;57470;50.034;15.256;2023-01-28T15:07:48;100358.91;;;0.05;89.42
70103;BME280;57470;50.034;15.256;2023-01-28T15:12:42;100360.44;;;0.21;89.28
70103;BME280;57470;50.034;15.256;2023-01-28T15:17:45;100374.41;;;0.18;88.85
70103;BME280;57470;50.034;15.256;2023-01-28T15:20:18;100375.47;;;0.05;89.12
70103;BME280;57470;50.034;15.256;2023-01-28T15:22:44;100375.25;;;0.22;89.09
70103;BME280;57470;50.034;15.256;2023-01-28T15:25:25;100373.75;;;0.01;89.35
70103;BME280;57470;50.034;15.256;2023-01-28T15:27:53;100383.91;;;0.27;89.08
70103;BME280;57470;50.034;15.256;2023-01-28T15:30:28;100386.72;;;0.10;89.64